Time;durP1;ratioP1;P1;durP2;ratioP2;P2;SDS_P1;SDS_P2;PMS_P1;PMS_P2;Temp;Humidity;BMP_temperature;BMP_pressure;BME280_temperature;BME280_humidity;BME280_pressure;Samples;Min_cycle;Max_cycle;Signal;HPM_P1;HPM_P2
2023/06/09 00:01:35;;;;;;;10.10;4.45;;;;;;;;;;5012533;28;20398;-76
2023/06/09 00:04:02;;;;;;;6.22;3.35;;;;;;;;;;5012707;28;20018;-76
2023/06/09 00:06:28;;;;;;;12.55;3.85;;;;;;;;;;5012263;28;20022;-76
2023/06/09 00:08:54;;;;;;;12.82;4.78;;;;;;;;;;5012315;28;20079;-76
2023/06/09 00:11:21;;;;;;;17.88;5.28;;;;;;;;;;5012632;28;20156;-76
2023/06/09 00:13:47;;;;;;;14.57;5.05;;;;;;;;;;5016572;28;20041;-76
2023/06/09 00:16:13;;;;;;;22.23;5.88;;;;;;;;;;5015939;28;20030;-76
2023/06/09 00:18:40;;;;;;;11.27;5.28;;;;;;;;;;5015939;28;20105;-76
2023/06/09 00:21:06;;;;;;;11.90;4.03;;;;;;;;;;5016244;28;20029;-76
2023/06/09 00:23:33;;;;;;;13.25;4.43;;;;;;;;;;5016157;28;20119;-76
2023/06/09 00:25:59;;;;;;;11.90;4.10;;;;;;;;;;5015833;28;20161;-76
2023/06/09 00:28:25;;;;;;;13.20;4.03;;;;;;;;;;5016028;28;20140;-76
2023/06/09 00:30:51;;;;;;;8.80;3.97;;;;;;;;;;5015863;28;20029;-76
2023/06/09 00:33:18;;;;;;;8.15;4.30;;;;;;;;;;5015511;28;20037;-76
2023/06/09 00:35:44;;;;;;;9.95;4.25;;;;;;;;;;5015569;28;20022;-76
2023/06/09 00:38:11;;;;;;;10.77;4.22;;;;;;;;;;5015361;28;20030;-76
2023/06/09 00:40:37;;;;;;;11.52;4.85;;;;;;;;;;5014294;28;20148;-76
2023/06/09 00:43:04;;;;;;;9.23;3.45;;;;;;;;;;5015734;28;20026;-76
2023/06/09 00:45:36;;;;;;;12.52;3.80;;;;;;;;;;5014208;28;20457;-76
2023/06/09 00:48:03;;;;;;;13.35;3.97;;;;;;;;;;5015129;28;20040;-76
2023/06/09 00:50:29;;;;;;;12.55;3.42;;;;;;;;;;5015295;28;20400;-76
2023/06/09 00:52:56;;;;;;;14.68;5.88;;;;;;;;;;5015468;28;20056;-77
2023/06/09 00:55:22;;;;;;;11.77;4.78;;;;;;;;;;5015201;28;20109;-77
2023/06/09 00:57:55;;;;;;;10.48;4.45;;;;;;;;;;5015225;28;20061;-76
2023/06/09 01:00:24;;;;;;;11.65;4.68;;;;;;;;;;5015567;28;20113;-76
2023/06/09 01:02:52;;;;;;;8.38;3.95;;;;;;;;;;5015342;28;20411;-76
2023/06/09 01:05:18;;;;;;;11.73;4.07;;;;;;;;;;5015352;28;20033;-76
2023/06/09 01:07:54;;;;;;;11.55;4.60;;;;;;;;;;5014902;28;20038;-76
2023/06/09 01:10:35;;;;;;;19.92;4.60;;;;;;;;;;5015378;28;20380;-76
2023/06/09 01:13:09;;;;;;;12.90;4.47;;;;;;;;;;5015076;28;20030;-77
2023/06/09 01:15:39;;;;;;;9.90;4.15;;;;;;;;;;5014962;28;20113;-76
2023/06/09 01:18:08;;;;;;;17.75;4.30;;;;;;;;;;5014869;28;20033;-76
2023/06/09 01:20:49;;;;;;;11.93;4.95;;;;;;;;;;5014716;28;20453;-76
2023/06/09 01:23:18;;;;;;;11.10;4.25;;;;;;;;;;5014487;28;20072;-76
2023/06/09 01:25:45;;;;;;;15.82;5.28;;;;;;;;;;5014602;28;20025;-76
2023/06/09 01:28:16;;;;;;;14.93;5.90;;;;;;;;;;5013318;28;20054;-76
2023/06/09 01:30:43;;;;;;;8.93;4.55;;;;;;;;;;5014701;28;20025;-77
2023/06/09 01:33:10;;;;;;;10.27;4.38;;;;;;;;;;5014488;28;20029;-77
2023/06/09 01:35:37;;;;;;;11.35;5.63;;;;;;;;;;5014494;28;20037;-77
2023/06/09 01:38:04;;;;;;;15.50;5.70;;;;;;;;;;5014502;28;20030;-77
2023/06/09 01:40:31;;;;;;;10.27;5.13;;;;;;;;;;5014384;28;20441;-77
2023/06/09 01:42:58;;;;;;;16.63;6.13;;;;;;;;;;5014363;28;20030;-77
2023/06/09 01:45:25;;;;;;;8.38;3.50;;;;;;;;;;5014168;28;20549;-76
2023/06/09 01:47:51;;;;;;;15.40;5.50;;;;;;;;;;5014538;28;20099;-76
2023/06/09 01:50:22;;;;;;;16.35;4.72;;;;;;;;;;5012979;28;20494;-77
2023/06/09 01:52:58;;;;;;;10.80;5.38;;;;;;;;;;5014713;28;20025;-77
2023/06/09 01:55:27;;;;;;;13.20;4.80;;;;;;;;;;5014536;28;20088;-77
2023/06/09 01:57:55;;;;;;;13.25;4.72;;;;;;;;;;5014289;28;20026;-77
2023/06/09 02:00:23;;;;;;;12.25;3.88;;;;;;;;;;5014001;28;20026;-77
2023/06/09 02:02:51;;;;;;;14.00;4.95;;;;;;;;;;5014036;28;20346;-77
2023/06/09 02:05:18;;;;;;;16.73;5.13;;;;;;;;;;5014238;28;20030;-77
2023/06/09 02:07:45;;;;;;;9.60;4.40;;;;;;;;;;5013950;28;20029;-77
2023/06/09 02:10:11;;;;;;;11.20;3.47;;;;;;;;;;5013909;28;20033;-77
2023/06/09 02:12:37;;;;;;;14.57;4.88;;;;;;;;;;5013913;28;20032;-77
2023/06/09 02:15:04;;;;;;;12.43;4.88;;;;;;;;;;5013875;28;20034;-77
2023/06/09 02:17:33;;;;;;;10.50;4.60;;;;;;;;;;5013797;28;20104;-77
2023/06/09 02:19:59;;;;;;;9.68;4.13;;;;;;;;;;5014674;28;20077;-77
2023/06/09 02:22:26;;;;;;;10.88;4.00;;;;;;;;;;5013853;28;20025;-77
2023/06/09 02:24:52;;;;;;;11.88;4.35;;;;;;;;;;5013903;28;20057;-77
2023/06/09 02:27:18;;;;;;;13.82;5.30;;;;;;;;;;5013470;28;20133;-77
2023/06/09 02:29:44;;;;;;;13.90;4.68;;;;;;;;;;5013705;28;20097;-77
2023/06/09 02:32:10;;;;;;;13.77;4.68;;;;;;;;;;5013894;28;20445;-77
2023/06/09 02:34:37;;;;;;;18.55;5.38;;;;;;;;;;5012820;28;20080;-77
2023/06/09 02:37:07;;;;;;;16.65;5.20;;;;;;;;;;5013941;28;20025;-77
2023/06/09 02:39:33;;;;;;;12.55;5.55;;;;;;;;;;5013499;28;20037;-77
2023/06/09 02:41:59;;;;;;;15.07;5.05;;;;;;;;;;5013484;28;20021;-77
2023/06/09 02:44:25;;;;;;;7.55;3.17;;;;;;;;;;5013401;28;20029;-77
2023/06/09 02:46:51;;;;;;;12.48;5.05;;;;;;;;;;5013335;28;20116;-77
2023/06/09 02:49:17;;;;;;;12.55;5.53;;;;;;;;;;5012199;28;20029;-77
2023/06/09 02:51:43;;;;;;;13.52;4.95;;;;;;;;;;5013436;28;20037;-77
2023/06/09 02:54:09;;;;;;;16.38;5.28;;;;;;;;;;5012065;28;20025;-77
2023/06/09 02:56:35;;;;;;;12.68;6.07;;;;;;;;;;5013431;28;20026;-77
2023/06/09 02:59:02;;;;;;;13.40;5.80;;;;;;;;;;5013508;28;20026;-77
2023/06/09 03:01:34;;;;;;;9.57;4.07;;;;;;;;;;5013487;28;20068;-77
2023/06/09 03:04:05;;;;;;;12.75;4.13;;;;;;;;;;5013672;28;20018;-77
2023/06/09 03:06:32;;;;;;;18.77;7.03;;;;;;;;;;5013531;28;20022;-77
2023/06/09 03:08:58;;;;;;;18.92;7.03;;;;;;;;;;5013183;28;20108;-77
2023/06/09 03:11:25;;;;;;;14.32;5.03;;;;;;;;;;5013254;28;20100;-77
2023/06/09 03:13:51;;;;;;;13.48;5.03;;;;;;;;;;5013337;28;20481;-77
2023/06/09 03:16:17;;;;;;;16.58;7.30;;;;;;;;;;5013244;28;20034;-77
2023/06/09 03:18:43;;;;;;;14.90;6.97;;;;;;;;;;5013402;28;20022;-77
2023/06/09 03:21:09;;;;;;;14.15;6.20;;;;;;;;;;5013417;28;20396;-77
2023/06/09 03:23:36;;;;;;;15.90;6.45;;;;;;;;;;5014264;28;20129;-77
2023/06/09 03:26:02;;;;;;;13.07;5.30;;;;;;;;;;5013862;28;20048;-77
2023/06/09 03:28:27;;;;;;;13.43;5.20;;;;;;;;;;5018685;28;20396;-77
2023/06/09 03:30:55;;;;;;;18.67;6.68;;;;;;;;;;5033044;28;20041;-77
2023/06/09 03:33:21;;;;;;;20.80;7.60;;;;;;;;;;5032622;28;20030;-77
2023/06/09 03:35:48;;;;;;;19.13;7.10;;;;;;;;;;5032495;28;20045;-77
2023/06/09 03:38:14;;;;;;;21.55;7.43;;;;;;;;;;5032547;28;20033;-77
2023/06/09 03:40:40;;;;;;;16.63;6.38;;;;;;;;;;5032381;28;20021;-77
2023/06/09 03:43:07;;;;;;;12.73;5.22;;;;;;;;;;5032386;28;20028;-77
2023/06/09 03:45:34;;;;;;;16.77;7.07;;;;;;;;;;5033177;28;20059;-77
2023/06/09 03:48:04;;;;;;;15.73;4.35;;;;;;;;;;5036817;28;20022;-77
2023/06/09 03:50:30;;;;;;;12.32;5.20;;;;;;;;;;5036954;28;20021;-77
2023/06/09 03:52:56;;;;;;;12.52;6.47;;;;;;;;;;5036848;28;20109;-77
2023/06/09 03:55:31;;;;;;;14.70;5.75;;;;;;;;;;5036154;28;20104;-77
2023/06/09 03:57:57;;;;;;;12.98;4.95;;;;;;;;;;5036542;28;20514;-77
2023/06/09 04:00:23;;;;;;;16.77;5.78;;;;;;;;;;5036200;28;20104;-77
2023/06/09 04:02:49;;;;;;;13.98;6.00;;;;;;;;;;5037063;28;20057;-77
2023/06/09 04:05:15;;;;;;;16.13;6.00;;;;;;;;;;5036493;28;20033;-77
2023/06/09 04:07:42;;;;;;;14.57;5.20;;;;;;;;;;5036132;28;20087;-77
2023/06/09 04:10:08;;;;;;;17.48;6.82;;;;;;;;;;5036225;28;20034;-77
2023/06/09 04:12:34;;;;;;;21.17;6.10;;;;;;;;;;5035849;28;20097;-77
2023/06/09 04:15:00;;;;;;;17.55;6.80;;;;;;;;;;5036124;28;20108;-78
2023/06/09 04:17:27;;;;;;;17.75;6.50;;;;;;;;;;5036311;28;20091;-77
2023/06/09 04:19:54;;;;;;;14.50;6.07;;;;;;;;;;5035605;28;20108;-77
2023/06/09 04:22:21;;;;;;;14.13;5.80;;;;;;;;;;5036064;28;20026;-77
2023/06/09 04:24:47;;;;;;;12.63;6.18;;;;;;;;;;5036237;28;20072;-77
2023/06/09 04:27:15;;;;;;;12.85;5.25;;;;;;;;;;5034710;28;20064;-77
2023/06/09 04:29:41;;;;;;;17.67;6.18;;;;;;;;;;5034906;28;20365;-77
2023/06/09 04:32:09;;;;;;;11.55;4.35;;;;;;;;;;5036265;28;20468;-77
2023/06/09 04:34:39;;;;;;;10.45;4.90;;;;;;;;;;5036297;28;20032;-76
2023/06/09 04:37:08;;;;;;;;;;;;;;;;;;5036336;28;20017;-77
2023/06/09 04:39:34;;;;;;;14.32;6.20;;;;;;;;;;5035919;28;20379;-77
2023/06/09 04:42:03;;;;;;;15.80;6.18;;;;;;;;;;5036122;28;20068;-76
2023/06/09 04:44:32;;;;;;;14.35;6.00;;;;;;;;;;5035881;28;20166;-76
2023/06/09 04:46:58;;;;;;;17.00;5.95;;;;;;;;;;5036477;28;20400;-76
2023/06/09 04:49:25;;;;;;;14.25;5.22;;;;;;;;;;5036384;28;20030;-77
2023/06/09 04:51:54;;;;;;;7.15;4.00;;;;;;;;;;5036629;28;20104;-76
2023/06/09 04:54:28;;;;;;;14.85;5.65;;;;;;;;;;5035896;28;20076;-77
2023/06/09 04:56:57;;;;;;;8.73;4.07;;;;;;;;;;5036618;28;20052;-77
2023/06/09 04:59:24;;;;;;;15.88;5.97;;;;;;;;;;5035796;28;20460;-77
2023/06/09 05:01:51;;;;;;;10.77;5.25;;;;;;;;;;5036671;28;20113;-77
2023/06/09 05:04:17;;;;;;;11.90;5.22;;;;;;;;;;5039223;28;20081;-77
2023/06/09 05:06:43;;;;;;;15.25;5.88;;;;;;;;;;5044862;28;20032;-76
2023/06/09 05:09:09;;;;;;;14.00;5.38;;;;;;;;;;5043870;28;20041;-76
2023/06/09 05:11:36;;;;;;;11.20;5.30;;;;;;;;;;5043037;28;20029;-77
2023/06/09 05:14:02;;;;;;;10.90;5.40;;;;;;;;;;5043682;28;20049;-77
2023/06/09 05:16:28;;;;;;;14.82;5.95;;;;;;;;;;5043474;28;20033;-77
2023/06/09 05:18:57;;;;;;;13.43;5.65;;;;;;;;;;5042169;28;20196;-76
2023/06/09 05:21:27;;;;;;;14.83;6.00;;;;;;;;;;5042203;28;20029;-77
2023/06/09 05:23:53;;;;;;;15.07;6.05;;;;;;;;;;5043717;28;20033;-77
2023/06/09 05:26:20;;;;;;;9.38;4.93;;;;;;;;;;5042889;28;20071;-77
2023/06/09 05:28:46;;;;;;;11.85;4.88;;;;;;;;;;5038556;28;20064;-77
2023/06/09 05:31:12;;;;;;;12.50;4.80;;;;;;;;;;5043244;28;20093;-76
2023/06/09 05:33:39;;;;;;;12.80;4.45;;;;;;;;;;5041285;28;20056;-77
2023/06/09 05:36:05;;;;;;;13.10;5.43;;;;;;;;;;5041864;28;20024;-77
2023/06/09 05:38:31;;;;;;;12.98;5.25;;;;;;;;;;5040923;28;20035;-77
2023/06/09 05:40:57;;;;;;;9.15;4.47;;;;;;;;;;5040272;28;20033;-77
2023/06/09 05:43:29;;;;;;;12.13;5.22;;;;;;;;;;5038878;28;20052;-77
2023/06/09 05:45:55;;;;;;;12.00;5.25;;;;;;;;;;5038347;28;20044;-77
2023/06/09 05:48:21;;;;;;;9.13;5.15;;;;;;;;;;5037221;28;20036;-77
2023/06/09 05:50:47;;;;;;;9.00;3.60;;;;;;;;;;5039111;28;20029;-77
2023/06/09 05:53:15;;;;;;;11.75;5.07;;;;;;;;;;5037392;28;20026;-77
2023/06/09 05:55:41;;;;;;;11.18;4.93;;;;;;;;;;5037757;28;20028;-77
2023/06/09 05:58:07;;;;;;;14.38;4.90;;;;;;;;;;5037089;28;20029;-77
2023/06/09 06:00:33;;;;;;;11.80;4.80;;;;;;;;;;5039039;28;20025;-77
2023/06/09 06:03:03;;;;;;;8.68;4.38;;;;;;;;;;5038876;28;20043;-78
2023/06/09 06:05:29;;;;;;;10.93;5.07;;;;;;;;;;5038417;28;20022;-77
2023/06/09 06:08:00;;;;;;;8.50;4.10;;;;;;;;;;5039220;28;20033;-77
2023/06/09 06:10:26;;;;;;;12.18;4.63;;;;;;;;;;5037050;28;20021;-77
2023/06/09 06:12:53;;;;;;;10.15;4.70;;;;;;;;;;5037387;28;20059;-77
2023/06/09 06:15:19;;;;;;;8.80;4.10;;;;;;;;;;5037995;28;20057;-78
2023/06/09 06:17:45;;;;;;;13.10;4.90;;;;;;;;;;5036897;28;20030;-78
2023/06/09 06:20:12;;;;;;;10.25;3.95;;;;;;;;;;5037258;28;20036;-78
2023/06/09 06:22:38;;;;;;;15.32;5.07;;;;;;;;;;5035012;28;20043;-77
2023/06/09 06:25:04;;;;;;;12.07;4.32;;;;;;;;;;5036538;28;20033;-78
2023/06/09 06:27:30;;;;;;;10.52;3.60;;;;;;;;;;5038726;28;20077;-77
2023/06/09 06:29:56;;;;;;;8.73;4.60;;;;;;;;;;5039765;28;20036;-77
2023/06/09 06:32:23;;;;;;;9.57;4.28;;;;;;;;;;5037913;28;20641;-78
2023/06/09 06:34:48;;;;;;;15.20;4.10;;;;;;;;;;5030836;28;20033;-77
2023/06/09 06:37:14;;;;;;;10.43;5.05;;;;;;;;;;5037664;28;20096;-77
2023/06/09 06:39:41;;;;;;;13.18;5.32;;;;;;;;;;5038467;28;20025;-77
2023/06/09 06:42:07;;;;;;;10.98;5.07;;;;;;;;;;5031679;28;20087;-77
2023/06/09 06:44:33;;;;;;;11.48;5.15;;;;;;;;;;5037394;28;20025;-77
2023/06/09 06:47:01;;;;;;;9.75;4.65;;;;;;;;;;5037931;28;20071;-77
2023/06/09 06:49:27;;;;;;;11.13;5.70;;;;;;;;;;5036197;28;20033;-77
2023/06/09 06:51:53;;;;;;;12.85;5.57;;;;;;;;;;5036667;28;20029;-77
2023/06/09 06:54:19;;;;;;;11.35;4.65;;;;;;;;;;5035491;28;20025;-78
2023/06/09 06:56:45;;;;;;;12.50;5.00;;;;;;;;;;5039557;28;20025;-78
2023/06/09 06:59:11;;;;;;;13.32;5.80;;;;;;;;;;5041020;28;20053;-78
2023/06/09 07:01:39;;;;;;;12.43;4.53;;;;;;;;;;5036996;28;20033;-78
2023/06/09 07:04:05;;;;;;;11.20;5.20;;;;;;;;;;5038193;28;20021;-77
2023/06/09 07:06:32;;;;;;;7.75;4.20;;;;;;;;;;5037709;28;20053;-77
2023/06/09 07:08:58;;;;;;;6.53;3.65;;;;;;;;;;5035909;28;20025;-77
2023/06/09 07:11:24;;;;;;;8.88;4.72;;;;;;;;;;5037640;28;20064;-78
2023/06/09 07:13:51;;;;;;;12.05;4.78;;;;;;;;;;5036219;28;20033;-77
2023/06/09 07:16:18;;;;;;;13.85;5.40;;;;;;;;;;5033194;28;20049;-77
2023/06/09 07:18:44;;;;;;;8.15;4.35;;;;;;;;;;5032058;28;20515;-77
2023/06/09 07:21:11;;;;;;;8.85;4.43;;;;;;;;;;5036413;28;20124;-77
2023/06/09 07:23:37;;;;;;;13.07;4.53;;;;;;;;;;5039302;28;20050;-77
2023/06/09 07:26:03;;;;;;;13.05;5.13;;;;;;;;;;5034658;28;20032;-77
2023/06/09 07:28:29;;;;;;;10.48;4.75;;;;;;;;;;5032787;28;20057;-77
2023/06/09 07:30:55;;;;;;;10.15;4.13;;;;;;;;;;5036244;28;20101;-77
2023/06/09 07:33:32;;;;;;;9.60;5.45;;;;;;;;;;5034271;28;20029;-77
2023/06/09 07:35:58;;;;;;;8.38;4.32;;;;;;;;;;5035122;28;20388;-77
2023/06/09 07:38:27;;;;;;;11.18;4.75;;;;;;;;;;5038901;28;20022;-77
2023/06/09 07:40:53;;;;;;;10.38;4.88;;;;;;;;;;5039813;28;20049;-77
2023/06/09 07:43:19;;;;;;;8.60;4.85;;;;;;;;;;5039633;28;20021;-77
2023/06/09 07:45:46;;;;;;;11.93;5.35;;;;;;;;;;5038513;28;20017;-77
2023/06/09 07:48:12;;;;;;;9.68;4.70;;;;;;;;;;5039879;28;20351;-77
2023/06/09 07:50:38;;;;;;;17.23;5.28;;;;;;;;;;5038796;28;20026;-77
2023/06/09 07:53:04;;;;;;;14.43;5.63;;;;;;;;;;5038881;28;20400;-77
2023/06/09 07:55:31;;;;;;;13.95;5.45;;;;;;;;;;5037542;28;20483;-77
2023/06/09 07:57:57;;;;;;;9.43;4.90;;;;;;;;;;5037490;28;20079;-77
2023/06/09 08:00:23;;;;;;;12.95;5.85;;;;;;;;;;5037510;28;20021;-77
2023/06/09 08:02:50;;;;;;;13.40;5.00;;;;;;;;;;5039392;28;20061;-77
2023/06/09 08:05:16;;;;;;;10.38;5.38;;;;;;;;;;5040737;28;20053;-78
2023/06/09 08:07:42;;;;;;;8.95;3.83;;;;;;;;;;5041908;28;20042;-78
2023/06/09 08:10:09;;;;;;;11.07;4.93;;;;;;;;;;5043220;28;20037;-78
2023/06/09 08:12:37;;;;;;;10.55;5.68;;;;;;;;;;5043382;28;20081;-78
2023/06/09 08:15:03;;;;;;;13.25;5.93;;;;;;;;;;5041349;28;20029;-78
2023/06/09 08:17:30;;;;;;;8.60;5.55;;;;;;;;;;5036711;28;20036;-78
2023/06/09 08:19:56;;;;;;;15.75;5.43;;;;;;;;;;5042219;28;20030;-78
2023/06/09 08:22:22;;;;;;;9.70;5.68;;;;;;;;;;5042088;28;20583;-78
2023/06/09 08:24:48;;;;;;;8.60;4.78;;;;;;;;;;5042344;28;20188;-78
2023/06/09 08:27:14;;;;;;;11.35;5.18;;;;;;;;;;5042204;28;20032;-78
2023/06/09 08:29:41;;;;;;;11.63;5.35;;;;;;;;;;5034756;28;20052;-78
2023/06/09 08:32:07;;;;;;;11.45;5.18;;;;;;;;;;5041853;28;20464;-78
2023/06/09 08:34:33;;;;;;;12.70;5.22;;;;;;;;;;5042774;28;20022;-78
2023/06/09 08:36:59;;;;;;;12.40;5.35;;;;;;;;;;5038848;28;20480;-78
2023/06/09 08:39:27;;;;;;;8.57;4.03;;;;;;;;;;5045426;28;20029;-78
2023/06/09 08:41:53;;;;;;;10.95;4.85;;;;;;;;;;5043144;28;20061;-77
2023/06/09 08:44:20;;;;;;;11.05;5.55;;;;;;;;;;5040466;28;20029;-77
2023/06/09 08:46:48;;;;;;;9.60;5.32;;;;;;;;;;5038977;28;20452;-77
2023/06/09 08:49:14;;;;;;;14.80;4.47;;;;;;;;;;5037478;28;20422;-77
2023/06/09 08:51:42;;;;;;;8.60;4.28;;;;;;;;;;5035721;28;20549;-77
2023/06/09 08:54:13;;;;;;;11.18;4.05;;;;;;;;;;5035785;28;20022;-77
2023/06/09 08:56:40;;;;;;;10.38;5.30;;;;;;;;;;5035297;28;20109;-77
2023/06/09 08:59:06;;;;;;;11.98;5.15;;;;;;;;;;5035013;28;20052;-77
2023/06/09 09:01:33;;;;;;;11.43;5.10;;;;;;;;;;5035099;28;20043;-77
2023/06/09 09:03:59;;;;;;;11.05;5.85;;;;;;;;;;5035080;28;20102;-77
2023/06/09 09:06:25;;;;;;;10.57;5.13;;;;;;;;;;5035243;28;20029;-77
2023/06/09 09:08:51;;;;;;;10.77;4.85;;;;;;;;;;5034728;28;20038;-77
2023/06/09 09:11:17;;;;;;;11.50;4.90;;;;;;;;;;5035309;28;20079;-77
2023/06/09 09:13:47;;;;;;;10.55;5.50;;;;;;;;;;5035945;28;20087;-76
2023/06/09 09:16:16;;;;;;;9.75;5.00;;;;;;;;;;5035764;28;20052;-76
2023/06/09 09:18:48;;;;;;;10.45;5.25;;;;;;;;;;5016744;28;20017;-77
2023/06/09 09:21:24;;;;;;;9.82;4.55;;;;;;;;;;5017414;28;20029;-77
2023/06/09 09:24:07;;;;;;;8.88;4.47;;;;;;;;;;5016265;28;20104;-77
2023/06/09 09:26:33;;;;;;;8.50;5.43;;;;;;;;;;5017179;28;20399;-77
2023/06/09 09:29:01;;;;;;;8.80;5.47;;;;;;;;;;5016686;28;20089;-76
2023/06/09 09:31:32;;;;;;;11.40;5.60;;;;;;;;;;5015191;28;20346;-76
2023/06/09 09:33:58;;;;;;;9.02;4.90;;;;;;;;;;5015562;28;20026;-76
2023/06/09 09:36:24;;;;;;;10.18;5.22;;;;;;;;;;5015936;28;20034;-76
2023/06/09 09:38:50;;;;;;;9.15;5.00;;;;;;;;;;5016356;28;20045;-77
2023/06/09 09:41:17;;;;;;;14.32;5.53;;;;;;;;;;5016178;28;20365;-77
2023/06/09 09:43:46;;;;;;;11.20;4.65;;;;;;;;;;5016233;28;20030;-77
2023/06/09 09:46:12;;;;;;;9.32;5.40;;;;;;;;;;5016683;28;20489;-77
2023/06/09 09:48:38;;;;;;;8.48;5.30;;;;;;;;;;5015366;28;20026;-76
2023/06/09 09:51:05;;;;;;;8.05;4.80;;;;;;;;;;5016372;28;20022;-76
2023/06/09 09:53:31;;;;;;;10.20;6.20;;;;;;;;;;5032333;28;20017;-77
2023/06/09 09:56:00;;;;;;;9.02;5.10;;;;;;;;;;5034589;28;20033;-76
2023/06/09 09:58:36;;;;;;;9.68;5.65;;;;;;;;;;5035695;28;20021;-76
2023/06/09 10:01:08;;;;;;;9.80;5.95;;;;;;;;;;5035915;28;20030;-77
2023/06/09 10:03:35;;;;;;;11.70;6.20;;;;;;;;;;5035503;28;20104;-76
2023/06/09 10:06:03;;;;;;;11.23;5.68;;;;;;;;;;5035791;28;20064;-76
2023/06/09 10:08:30;;;;;;;10.00;5.35;;;;;;;;;;5035017;28;20068;-75
2023/06/09 10:10:59;;;;;;;10.45;5.80;;;;;;;;;;5035727;28;20077;-75
2023/06/09 10:13:26;;;;;;;10.65;5.72;;;;;;;;;;5035584;28;20086;-75
2023/06/09 10:15:52;;;;;;;10.50;6.00;;;;;;;;;;5035201;28;20025;-76
2023/06/09 10:18:18;;;;;;;11.43;5.57;;;;;;;;;;5035054;28;20025;-76
2023/06/09 10:20:45;;;;;;;8.88;5.45;;;;;;;;;;5035056;28;20032;-76
2023/06/09 10:23:11;;;;;;;9.88;5.80;;;;;;;;;;5034726;28;20083;-76
2023/06/09 10:25:37;;;;;;;9.77;5.22;;;;;;;;;;5034958;28;20439;-77
2023/06/09 10:28:04;;;;;;;10.68;6.28;;;;;;;;;;5034091;28;20132;-76
2023/06/09 10:30:30;;;;;;;10.90;5.53;;;;;;;;;;5034287;28;20107;-76
2023/06/09 10:32:58;;;;;;;10.02;5.72;;;;;;;;;;5033580;28;20025;-76
2023/06/09 10:35:28;;;;;;;11.15;5.82;;;;;;;;;;5033981;28;20033;-76
2023/06/09 10:37:56;;;;;;;8.35;4.53;;;;;;;;;;5034426;28;20029;-76
2023/06/09 10:40:28;;;;;;;9.82;5.03;;;;;;;;;;5034513;28;20029;-77
2023/06/09 10:43:02;;;;;;;14.32;6.38;;;;;;;;;;5033748;28;20101;-76
2023/06/09 10:45:48;;;;;;;12.48;6.47;;;;;;;;;;5033919;28;20095;-77
2023/06/09 10:48:14;;;;;;;8.98;5.57;;;;;;;;;;5034232;28;20041;-77
2023/06/09 10:50:40;;;;;;;12.45;5.85;;;;;;;;;;5034757;28;20104;-77
2023/06/09 10:53:15;;;;;;;10.05;5.45;;;;;;;;;;5033781;28;20056;-77
2023/06/09 10:55:42;;;;;;;9.07;5.80;;;;;;;;;;5033520;28;20021;-76
2023/06/09 10:58:27;;;;;;;8.73;5.78;;;;;;;;;;5033709;28;20029;-76
2023/06/09 11:01:07;;;;;;;10.32;5.70;;;;;;;;;;5034254;28;20025;-76
2023/06/09 11:03:33;;;;;;;11.07;5.22;;;;;;;;;;5033502;28;20025;-76
2023/06/09 11:06:00;;;;;;;11.88;5.40;;;;;;;;;;5033569;28;20032;-76
2023/06/09 11:08:26;;;;;;;10.18;5.68;;;;;;;;;;5048802;28;20116;-76
2023/06/09 11:10:52;;;;;;;9.52;5.72;;;;;;;;;;5033439;28;20029;-76
2023/06/09 11:13:37;;;;;;;12.23;5.93;;;;;;;;;;5032903;28;20022;-77
2023/06/09 11:16:03;;;;;;;11.50;6.38;;;;;;;;;;5033631;28;20033;-77
2023/06/09 11:18:30;;;;;;;10.73;5.63;;;;;;;;;;5033543;28;20034;-77
2023/06/09 11:21:13;;;;;;;11.60;5.90;;;;;;;;;;5033592;28;20107;-77
2023/06/09 11:24:00;;;;;;;9.45;5.32;;;;;;;;;;5034641;28;20026;-77
2023/06/09 11:26:26;;;;;;;13.63;6.65;;;;;;;;;;5034594;28;20025;-77
2023/06/09 11:28:52;;;;;;;10.27;5.85;;;;;;;;;;5033450;28;20077;-76
2023/06/09 11:31:18;;;;;;;9.48;6.07;;;;;;;;;;5033142;28;20028;-76
2023/06/09 11:33:45;;;;;;;8.43;5.70;;;;;;;;;;5033393;28;20021;-77
2023/06/09 11:36:16;;;;;;;11.70;5.90;;;;;;;;;;5034500;28;20071;-77
2023/06/09 11:38:42;;;;;;;10.60;5.80;;;;;;;;;;5034444;28;20549;-77
2023/06/09 11:41:10;;;;;;;10.45;6.20;;;;;;;;;;5034312;28;20064;-77
2023/06/09 11:43:36;;;;;;;9.75;5.30;;;;;;;;;;5033443;28;20028;-76
2023/06/09 11:46:03;;;;;;;10.48;5.95;;;;;;;;;;5033293;28;20033;-77
2023/06/09 11:48:30;;;;;;;10.85;5.80;;;;;;;;;;5033449;28;20034;-77
2023/06/09 11:50:56;;;;;;;10.73;5.70;;;;;;;;;;5033785;28;20025;-77
2023/06/09 11:53:24;;;;;;;7.55;4.70;;;;;;;;;;5034072;28;20048;-76
2023/06/09 11:55:58;;;;;;;9.30;5.03;;;;;;;;;;5033678;28;20079;-77
2023/06/09 11:58:24;;;;;;;8.95;5.55;;;;;;;;;;5034083;28;20372;-76
2023/06/09 12:00:50;;;;;;;10.35;5.90;;;;;;;;;;5034056;28;20410;-77
2023/06/09 12:03:19;;;;;;;8.27;4.88;;;;;;;;;;5034101;28;20025;-77
2023/06/09 12:05:45;;;;;;;;;;;;;;;;;;5034094;28;20022;-77
2023/06/09 12:08:12;;;;;;;11.00;6.07;;;;;;;;;;5036392;28;19924;-76
2023/06/09 12:10:38;;;;;;;10.63;5.90;;;;;;;;;;5036560;28;20026;-76
2023/06/09 12:13:04;;;;;;;9.98;5.97;;;;;;;;;;5036576;28;20036;-76
2023/06/09 12:15:30;;;;;;;10.55;5.60;;;;;;;;;;5037804;28;20033;-76
2023/06/09 12:17:57;;;;;;;8.98;5.82;;;;;;;;;;5036539;28;20021;-76
2023/06/09 12:20:26;;;;;;;13.68;6.03;;;;;;;;;;5036091;28;20084;-76
2023/06/09 12:22:53;;;;;;;12.00;6.20;;;;;;;;;;5036147;28;20022;-76
2023/06/09 12:25:26;;;;;;;10.18;5.05;;;;;;;;;;5036350;28;20029;-76
2023/06/09 12:28:13;;;;;;;12.32;5.95;;;;;;;;;;5033114;28;20089;-76
2023/06/09 12:30:42;;;;;;;13.25;6.57;;;;;;;;;;5035330;28;20037;-76
2023/06/09 12:33:09;;;;;;;12.65;6.13;;;;;;;;;;5035674;28;20022;-76
2023/06/09 12:35:39;;;;;;;13.02;6.40;;;;;;;;;;5036608;28;20026;-76
2023/06/09 12:38:04;;;;;;;;;;;;;;;;;;5036771;28;20093;-76
2023/06/09 12:40:41;;;;;;;9.30;4.80;;;;;;;;;;5036283;28;19940;-77
2023/06/09 12:43:07;;;;;;;10.70;5.25;;;;;;;;;;5036835;28;20527;-77
2023/06/09 12:45:33;;;;;;;12.00;5.72;;;;;;;;;;5037361;28;20069;-77
2023/06/09 12:48:05;;;;;;;13.02;5.05;;;;;;;;;;5036614;28;20415;-77
2023/06/09 12:50:31;;;;;;;13.18;5.43;;;;;;;;;;5037185;28;20026;-77
2023/06/09 12:52:57;;;;;;;11.73;4.82;;;;;;;;;;5037454;28;20030;-77
2023/06/09 12:55:23;;;;;;;10.95;5.25;;;;;;;;;;5036208;28;20108;-76
2023/06/09 12:57:49;;;;;;;11.43;6.60;;;;;;;;;;5036442;28;20033;-77
2023/06/09 13:00:15;;;;;;;13.63;4.95;;;;;;;;;;5036389;28;20029;-77
2023/06/09 13:02:41;;;;;;;14.30;6.72;;;;;;;;;;5036283;28;20034;-77
2023/06/09 13:05:07;;;;;;;17.40;6.05;;;;;;;;;;5036256;28;20082;-77
2023/06/09 13:07:33;;;;;;;16.38;6.22;;;;;;;;;;5036248;28;20037;-76
2023/06/09 13:10:03;;;;;;;11.63;5.80;;;;;;;;;;5036273;28;20034;-76
2023/06/09 13:12:29;;;;;;;13.48;5.45;;;;;;;;;;5036745;28;20465;-76
2023/06/09 13:14:55;;;;;;;11.20;5.30;;;;;;;;;;5036285;28;20030;-76
2023/06/09 13:17:21;;;;;;;10.68;5.50;;;;;;;;;;5035684;28;20037;-77
2023/06/09 13:19:47;;;;;;;14.23;6.72;;;;;;;;;;5035586;28;20029;-76
2023/06/09 13:22:13;;;;;;;11.52;5.63;;;;;;;;;;5036286;28;20021;-76
2023/06/09 13:24:40;;;;;;;10.65;4.95;;;;;;;;;;5035762;28;20095;-76
2023/06/09 13:27:06;;;;;;;11.82;5.78;;;;;;;;;;5035531;28;20051;-77
2023/06/09 13:29:32;;;;;;;13.40;5.53;;;;;;;;;;5018869;28;20084;-76
2023/06/09 13:31:58;;;;;;;10.52;5.65;;;;;;;;;;5016150;28;20026;-76
2023/06/09 13:34:24;;;;;;;11.15;5.53;;;;;;;;;;5015550;28;20018;-76
2023/06/09 13:36:51;;;;;;;12.40;6.03;;;;;;;;;;5021032;28;20033;-76
2023/06/09 13:39:17;;;;;;;13.05;5.65;;;;;;;;;;5035697;28;20017;-76
2023/06/09 13:41:43;;;;;;;14.30;5.25;;;;;;;;;;5034460;28;20043;-76
2023/06/09 13:44:09;;;;;;;15.73;6.55;;;;;;;;;;5034486;28;20052;-77
2023/06/09 13:46:35;;;;;;;13.43;4.95;;;;;;;;;;5030143;28;20022;-77
2023/06/09 13:49:04;;;;;;;14.95;6.43;;;;;;;;;;5022941;28;20036;-76
2023/06/09 13:51:34;;;;;;;6.70;3.95;;;;;;;;;;5035603;28;20027;-76
2023/06/09 13:53:59;;;;;;;;;;;;;;;;;;5035859;28;20029;-76
2023/06/09 13:56:26;;;;;;;11.95;4.80;;;;;;;;;;5035475;28;19912;-76
2023/06/09 13:58:52;;;;;;;13.07;5.50;;;;;;;;;;5035279;28;20068;-76
2023/06/09 14:01:18;;;;;;;13.02;5.72;;;;;;;;;;5035125;28;20029;-76
2023/06/09 14:03:44;;;;;;;10.38;4.85;;;;;;;;;;5034270;28;20109;-76
2023/06/09 14:06:11;;;;;;;8.85;4.55;;;;;;;;;;5034317;28;20038;-76
2023/06/09 14:08:37;;;;;;;10.35;4.68;;;;;;;;;;5034343;28;20030;-76
2023/06/09 14:11:05;;;;;;;10.25;6.25;;;;;;;;;;5033907;28;20033;-76
2023/06/09 14:13:31;;;;;;;10.52;5.85;;;;;;;;;;5034681;28;20029;-76
2023/06/09 14:15:57;;;;;;;11.65;5.38;;;;;;;;;;5033807;28;20075;-76
2023/06/09 14:18:23;;;;;;;12.50;5.65;;;;;;;;;;5033737;28;20029;-77
2023/06/09 14:20:49;;;;;;;11.98;5.93;;;;;;;;;;5033979;28;20437;-76
2023/06/09 14:23:15;;;;;;;10.82;5.55;;;;;;;;;;5034364;28;20021;-76
2023/06/09 14:25:42;;;;;;;14.27;6.63;;;;;;;;;;5033589;28;20037;-76
2023/06/09 14:28:08;;;;;;;11.50;5.13;;;;;;;;;;5032165;28;20052;-76
2023/06/09 14:30:34;;;;;;;11.30;5.60;;;;;;;;;;5032742;28;20103;-77
2023/06/09 14:33:01;;;;;;;15.82;5.20;;;;;;;;;;5033523;28;20483;-76
2023/06/09 14:35:27;;;;;;;16.90;5.63;;;;;;;;;;5033847;28;20091;-76